createdAt,value
2023-08-17T00:00:38.118Z,0
2023-08-17T00:01:54.234Z,0
2023-08-17T00:03:10.385Z,0
2023-08-17T00:04:25.525Z,0
2023-08-17T00:05:41.664Z,0
2023-08-17T00:06:57.797Z,0
2023-08-17T00:08:13.923Z,0
2023-08-17T00:09:30.050Z,0
2023-08-17T00:10:46.183Z,0
2023-08-17T00:12:02.320Z,0
2023-08-17T00:13:18.446Z,0
2023-08-17T00:14:34.578Z,0
2023-08-17T00:15:50.717Z,0
2023-08-17T00:17:06.846Z,0
2023-08-17T00:18:22.980Z,0
2023-08-17T00:19:39.113Z,0
2023-08-17T00:20:55.246Z,0
2023-08-17T00:22:10.392Z,0
2023-08-17T00:23:26.525Z,0
2023-08-17T00:24:42.657Z,0
2023-08-17T00:25:58.790Z,0
2023-08-17T00:27:14.921Z,0
2023-08-17T00:28:31.051Z,0
2023-08-17T00:29:47.182Z,0
2023-08-17T00:31:03.304Z,0
2023-08-17T00:32:19.450Z,0
2023-08-17T00:33:35.578Z,0
2023-08-17T00:34:51.712Z,0
2023-08-17T00:36:07.843Z,0
2023-08-17T00:37:23.965Z,0
2023-08-17T00:38:39.122Z,0
2023-08-17T00:39:55.251Z,0
2023-08-17T00:41:11.389Z,0
2023-08-17T00:42:27.520Z,0
2023-08-17T00:43:43.648Z,0
2023-08-17T00:44:59.790Z,0
2023-08-17T00:46:15.907Z,0
2023-08-17T00:47:32.045Z,0
2023-08-17T00:48:48.170Z,0
2023-08-17T00:50:04.308Z,0
2023-08-17T00:51:20.440Z,0
2023-08-17T00:52:36.573Z,0
2023-08-17T00:53:52.708Z,0
2023-08-17T00:55:07.857Z,0
2023-08-17T00:56:23.987Z,0
2023-08-17T00:57:40.126Z,0
2023-08-17T00:58:56.248Z,0
2023-08-17T01:00:12.376Z,0
2023-08-17T01:01:28.516Z,0
2023-08-17T01:02:44.649Z,0
2023-08-17T01:04:00.781Z,0
2023-08-17T01:05:16.913Z,0
2023-08-17T01:06:33.047Z,0
2023-08-17T01:07:49.179Z,0
2023-08-17T01:09:05.296Z,0
2023-08-17T01:10:21.422Z,0
2023-08-17T01:11:36.586Z,0
2023-08-17T01:12:52.718Z,0
2023-08-17T01:14:08.850Z,0
2023-08-17T01:15:24.974Z,0
2023-08-17T01:16:41.107Z,0
2023-08-17T01:17:56.269Z,0
2023-08-17T01:19:12.399Z,0
2023-08-17T01:20:28.532Z,0
2023-08-17T01:21:44.659Z,0
2023-08-17T01:23:00.803Z,0
2023-08-17T01:24:16.930Z,0
2023-08-17T01:25:33.059Z,0
2023-08-17T01:26:49.196Z,0
2023-08-17T01:28:05.322Z,0
2023-08-17T01:29:21.455Z,0
2023-08-17T01:30:37.591Z,0
2023-08-17T01:31:53.722Z,0
2023-08-17T01:33:09.844Z,0
2023-08-17T01:34:25.000Z,0
2023-08-17T01:35:41.129Z,0
2023-08-17T01:36:57.265Z,0
2023-08-17T01:38:13.388Z,0
2023-08-17T01:39:29.532Z,0
2023-08-17T01:40:45.659Z,0
2023-08-17T01:42:01.790Z,0
2023-08-17T01:43:17.928Z,0
2023-08-17T01:44:34.053Z,0
2023-08-17T01:45:50.184Z,0
2023-08-17T01:47:06.323Z,0
2023-08-17T01:48:22.442Z,0
2023-08-17T01:49:38.583Z,0
2023-08-17T01:50:53.729Z,0
2023-08-17T01:52:09.873Z,0
2023-08-17T01:53:26.000Z,0
2023-08-17T01:54:42.128Z,0
2023-08-17T01:55:58.256Z,0
2023-08-17T01:57:14.000Z,0
2023-08-17T01:58:30.523Z,0
2023-08-17T01:59:46.652Z,0
2023-08-17T02:01:02.787Z,0
2023-08-17T02:02:18.910Z,0
2023-08-17T02:03:35.044Z,0
2023-08-17T02:04:51.178Z,0
2023-08-17T02:06:07.314Z,0
2023-08-17T02:07:22.457Z,0
2023-08-17T02:08:38.590Z,0
2023-08-17T02:09:54.722Z,0
2023-08-17T02:11:10.848Z,0
2023-08-17T02:12:26.984Z,0
2023-08-17T02:13:43.114Z,0
2023-08-17T02:14:59.246Z,0
2023-08-17T02:16:15.391Z,0
2023-08-17T02:17:31.517Z,0
2023-08-17T02:18:47.644Z,0
2023-08-17T02:20:03.780Z,0
2023-08-17T02:21:19.902Z,0
2023-08-17T02:22:36.044Z,0
2023-08-17T02:23:51.178Z,0
2023-08-17T02:25:07.310Z,0
2023-08-17T02:26:23.451Z,0
2023-08-17T02:27:39.589Z,0
2023-08-17T02:28:55.713Z,0
2023-08-17T02:30:11.851Z,0
2023-08-17T02:31:27.975Z,0
2023-08-17T02:32:44.117Z,0
2023-08-17T02:34:00.246Z,0
2023-08-17T02:35:16.366Z,0
2023-08-17T02:36:32.498Z,0
2023-08-17T02:37:48.630Z,0
2023-08-17T02:39:04.772Z,0
2023-08-17T02:40:20.901Z,0
2023-08-17T02:41:36.037Z,0
2023-08-17T02:42:52.175Z,0
2023-08-17T02:44:08.310Z,0
2023-08-17T02:45:24.441Z,0
2023-08-17T02:46:40.583Z,0
2023-08-17T02:47:56.715Z,0
2023-08-17T02:49:12.828Z,0
2023-08-17T02:50:28.979Z,0
2023-08-17T02:51:45.098Z,0
2023-08-17T02:53:01.231Z,0
2023-08-17T02:54:17.357Z,0
2023-08-17T02:55:33.501Z,0
2023-08-17T02:56:49.618Z,0
2023-08-17T02:58:04.779Z,0
2023-08-17T02:59:20.910Z,0
2023-08-17T03:00:37.044Z,0
2023-08-17T03:01:53.179Z,0
2023-08-17T03:03:09.307Z,0
2023-08-17T03:04:25.444Z,0
2023-08-17T03:05:41.563Z,0
2023-08-17T03:06:57.700Z,0
2023-08-17T03:08:13.839Z,0
2023-08-17T03:09:29.970Z,0
2023-08-17T03:10:46.101Z,0
2023-08-17T03:12:02.227Z,0
2023-08-17T03:13:18.364Z,0
2023-08-17T03:14:33.516Z,0
2023-08-17T03:15:49.641Z,0
2023-08-17T03:17:05.775Z,0
2023-08-17T03:18:21.911Z,0
2023-08-17T03:19:38.038Z,0
2023-08-17T03:20:54.168Z,0
2023-08-17T03:22:10.300Z,0
2023-08-17T03:23:26.428Z,0
2023-08-17T03:24:42.564Z,0
2023-08-17T03:25:58.693Z,0
2023-08-17T03:27:14.830Z,0
2023-08-17T03:28:30.963Z,0
2023-08-17T03:29:47.089Z,0
2023-08-17T03:31:03.222Z,0
2023-08-17T03:32:18.373Z,0
2023-08-17T03:33:34.513Z,0
2023-08-17T03:34:50.639Z,0
2023-08-17T03:36:06.767Z,0
2023-08-17T03:37:22.898Z,0
2023-08-17T03:38:39.030Z,0
2023-08-17T03:39:55.162Z,0
2023-08-17T03:41:11.295Z,0
2023-08-17T03:42:27.425Z,0
2023-08-17T03:43:43.558Z,0
2023-08-17T03:44:59.691Z,0
2023-08-17T03:46:15.826Z,0
2023-08-17T03:47:31.958Z,0
2023-08-17T03:48:47.103Z,0
2023-08-17T03:50:03.233Z,0
2023-08-17T03:51:19.364Z,0
2023-08-17T03:52:35.494Z,4
2023-08-17T03:53:51.637Z,4
2023-08-17T03:55:07.763Z,0
2023-08-17T03:56:23.892Z,4
2023-08-17T03:57:40.025Z,4
2023-08-17T03:58:56.153Z,4
2023-08-17T04:00:12.295Z,4
2023-08-17T04:01:28.417Z,8
2023-08-17T04:02:44.552Z,8
2023-08-17T04:04:00.676Z,12
2023-08-17T04:05:15.835Z,16
2023-08-17T04:06:31.969Z,16
2023-08-17T04:07:48.101Z,24
2023-08-17T04:09:04.221Z,24
2023-08-17T04:10:20.362Z,28
2023-08-17T04:11:36.496Z,36
2023-08-17T04:12:52.623Z,44
2023-08-17T04:14:08.752Z,52
2023-08-17T04:15:24.891Z,60
2023-08-17T04:16:41.024Z,72
2023-08-17T04:17:57.154Z,84
2023-08-17T04:19:13.288Z,92
2023-08-17T04:20:29.417Z,100
2023-08-17T04:21:45.549Z,112
2023-08-17T04:23:00.697Z,124
2023-08-17T04:24:16.818Z,140
2023-08-17T04:25:32.965Z,156
2023-08-17T04:26:49.097Z,172
2023-08-17T04:28:05.226Z,188
2023-08-17T04:29:21.355Z,216
2023-08-17T04:30:37.490Z,232
2023-08-17T04:31:53.623Z,260
2023-08-17T04:33:09.757Z,284
2023-08-17T04:34:25.891Z,312
2023-08-17T04:35:42.022Z,340
2023-08-17T04:36:58.147Z,372
2023-08-17T04:38:14.287Z,404
2023-08-17T04:39:30.416Z,448
2023-08-17T04:40:45.559Z,492
2023-08-17T04:42:01.703Z,540
2023-08-17T04:43:17.831Z,584
2023-08-17T04:44:33.957Z,624
2023-08-17T04:45:50.085Z,656
2023-08-17T04:47:06.231Z,684
2023-08-17T04:48:22.360Z,712
2023-08-17T04:49:38.493Z,736
2023-08-17T04:50:54.623Z,760
2023-08-17T04:52:10.749Z,792
2023-08-17T04:53:26.885Z,820
2023-08-17T04:54:43.011Z,844
2023-08-17T04:55:59.142Z,864
2023-08-17T04:57:14.295Z,892
2023-08-17T04:58:30.433Z,924
2023-08-17T04:59:46.557Z,944
2023-08-17T05:01:02.687Z,952
2023-08-17T05:02:18.821Z,956
2023-08-17T05:03:34.956Z,960
2023-08-17T05:04:51.081Z,968
2023-08-17T05:06:07.221Z,992
2023-08-17T05:07:23.357Z,1004
2023-08-17T05:08:39.482Z,996
2023-08-17T05:09:55.606Z,976
2023-08-17T05:11:11.745Z,960
2023-08-17T05:12:27.878Z,936
2023-08-17T05:13:43.030Z,912
2023-08-17T05:14:59.159Z,896
2023-08-17T05:16:15.291Z,876
2023-08-17T05:17:31.427Z,868
2023-08-17T05:18:47.555Z,856
2023-08-17T05:20:03.691Z,852
2023-08-17T05:21:19.823Z,864
2023-08-17T05:22:35.944Z,884
2023-08-17T05:23:52.079Z,920
2023-08-17T05:25:08.198Z,988
2023-08-17T05:26:24.342Z,1032
2023-08-17T05:27:40.471Z,1072
2023-08-17T05:28:56.611Z,1120
2023-08-17T05:30:11.750Z,1120
2023-08-17T05:31:27.888Z,1204
2023-08-17T05:32:43.047Z,1280
2023-08-17T05:33:59.176Z,1244
2023-08-17T05:35:15.311Z,1244
2023-08-17T05:36:31.437Z,1280
2023-08-17T05:37:47.574Z,1336
2023-08-17T05:39:03.710Z,1412
2023-08-17T05:40:19.821Z,1540
2023-08-17T05:41:35.967Z,1696
2023-08-17T05:42:52.091Z,1816
2023-08-17T05:44:08.231Z,2052
2023-08-17T05:45:24.370Z,2176
2023-08-17T05:46:40.493Z,2252
2023-08-17T05:47:56.630Z,2292
2023-08-17T05:49:11.777Z,2356
2023-08-17T05:50:27.915Z,2384
2023-08-17T05:51:44.042Z,2492
2023-08-17T05:53:00.162Z,2676
2023-08-17T05:54:16.301Z,2736
2023-08-17T05:55:32.439Z,2876
2023-08-17T05:56:48.562Z,2976
2023-08-17T05:58:04.700Z,3144
2023-08-17T05:59:20.830Z,3032
2023-08-17T06:00:36.963Z,2948
2023-08-17T06:01:53.089Z,3108
2023-08-17T06:03:09.230Z,3316
2023-08-17T06:04:25.359Z,3244
2023-08-17T06:05:40.502Z,2872
2023-08-17T06:06:56.642Z,2692
2023-08-17T06:08:12.767Z,2584
2023-08-17T06:09:28.896Z,2424
2023-08-17T06:10:45.030Z,2344
2023-08-17T06:12:01.166Z,2320
2023-08-17T06:13:17.289Z,2404
2023-08-17T06:14:33.427Z,2672
2023-08-17T06:15:49.560Z,2740
2023-08-17T06:17:05.689Z,2468
2023-08-17T06:18:21.819Z,2640
2023-08-17T06:19:37.961Z,2756
2023-08-17T06:20:54.091Z,2776
2023-08-17T06:22:09.231Z,2724
2023-08-17T06:23:25.370Z,2684
2023-08-17T06:24:41.499Z,2760
2023-08-17T06:25:57.628Z,2744
2023-08-17T06:27:13.766Z,2840
2023-08-17T06:28:29.894Z,2724
2023-08-17T06:29:46.028Z,2708
2023-08-17T06:31:02.164Z,2680
2023-08-17T06:32:18.299Z,2660
2023-08-17T06:33:34.432Z,2604
2023-08-17T06:34:50.562Z,2576
2023-08-17T06:36:06.690Z,2560
2023-08-17T06:37:22.825Z,2360
2023-08-17T06:38:38.959Z,2296
2023-08-17T06:39:54.098Z,2248
2023-08-17T06:41:10.239Z,2208
2023-08-17T06:42:26.362Z,2188
2023-08-17T06:43:42.491Z,2132
2023-08-17T06:44:58.632Z,2084
2023-08-17T06:46:14.757Z,2060
2023-08-17T06:47:30.892Z,2048
2023-08-17T06:48:47.027Z,2048
2023-08-17T06:50:03.146Z,2056
2023-08-17T06:51:19.297Z,2084
2023-08-17T06:52:35.417Z,2168
2023-08-17T06:53:51.554Z,2296
2023-08-17T06:55:07.693Z,2336
2023-08-17T06:56:22.836Z,2364
2023-08-17T06:57:38.967Z,2348
2023-08-17T06:58:55.093Z,2340
2023-08-17T07:00:11.235Z,2348
2023-08-17T07:01:27.368Z,2396
2023-08-17T07:02:43.501Z,2488
2023-08-17T07:03:59.631Z,2624
2023-08-17T07:05:15.758Z,2704
2023-08-17T07:06:31.884Z,2640
2023-08-17T07:07:48.017Z,2544
2023-08-17T07:09:04.148Z,2440
2023-08-17T07:10:20.290Z,2500
2023-08-17T07:11:36.418Z,2648
2023-08-17T07:12:51.562Z,2760
2023-08-17T07:14:07.695Z,2836
2023-08-17T07:15:23.825Z,2888
2023-08-17T07:16:39.961Z,2840
2023-08-17T07:17:56.092Z,2952
2023-08-17T07:19:12.216Z,3008
2023-08-17T07:20:28.356Z,3008
2023-08-17T07:21:44.489Z,2812
2023-08-17T07:23:00.623Z,2772
2023-08-17T07:24:16.759Z,2844
2023-08-17T07:25:32.890Z,2872
2023-08-17T07:26:49.018Z,2980
2023-08-17T07:28:05.151Z,3088
2023-08-17T07:29:20.298Z,3180
2023-08-17T07:30:36.432Z,3328
2023-08-17T07:31:52.564Z,3608
2023-08-17T07:33:08.697Z,3828
2023-08-17T07:34:24.832Z,3964
2023-08-17T07:35:40.960Z,4592
2023-08-17T07:36:57.097Z,4600
2023-08-17T07:38:13.217Z,4456
2023-08-17T07:39:29.357Z,4320
2023-08-17T07:40:45.486Z,4324
2023-08-17T07:42:01.623Z,4412
2023-08-17T07:43:17.744Z,4256
2023-08-17T07:44:33.888Z,4312
2023-08-17T07:45:49.033Z,4316
2023-08-17T07:47:05.170Z,4188
2023-08-17T07:48:21.294Z,4248
2023-08-17T07:49:37.426Z,4252
2023-08-17T07:50:53.561Z,4288
2023-08-17T07:52:09.687Z,4320
2023-08-17T07:53:25.817Z,4340
2023-08-17T07:54:41.962Z,4436
2023-08-17T07:55:58.095Z,4460
2023-08-17T07:57:14.219Z,4476
2023-08-17T07:58:30.351Z,4504
2023-08-17T07:59:46.484Z,4556
2023-08-17T08:01:02.611Z,4616
2023-08-17T08:02:17.760Z,4688
2023-08-17T08:03:33.893Z,4736
2023-08-17T08:04:50.024Z,4764
2023-08-17T08:06:06.161Z,4788
2023-08-17T08:07:22.300Z,4840
2023-08-17T08:08:38.419Z,4884
2023-08-17T08:09:54.552Z,4956
2023-08-17T08:11:10.682Z,5024
2023-08-17T08:12:26.820Z,5128
2023-08-17T08:13:42.953Z,5220
2023-08-17T08:14:59.079Z,5260
2023-08-17T08:16:15.211Z,5268
2023-08-17T08:17:31.353Z,4836
2023-08-17T08:18:46.496Z,5064
2023-08-17T08:20:02.608Z,5096
2023-08-17T08:21:18.766Z,4848
2023-08-17T08:22:34.898Z,5024
2023-08-17T08:23:51.027Z,5188
2023-08-17T08:25:07.153Z,5264
2023-08-17T08:26:23.285Z,5300
2023-08-17T08:27:39.426Z,5080
2023-08-17T08:28:55.550Z,5100
2023-08-17T08:30:11.691Z,5128
2023-08-17T08:31:27.830Z,5068
2023-08-17T08:32:43.942Z,5020
2023-08-17T08:34:00.078Z,5020
2023-08-17T08:35:16.211Z,5000
2023-08-17T08:36:31.355Z,5012
2023-08-17T08:37:47.492Z,5000
2023-08-17T08:39:03.623Z,5004
2023-08-17T08:40:19.759Z,5040
2023-08-17T08:41:35.893Z,5136
2023-08-17T08:42:52.023Z,5224
2023-08-17T08:44:08.148Z,5216
2023-08-17T08:45:24.285Z,5412
2023-08-17T08:46:40.417Z,5520
2023-08-17T08:47:56.551Z,5588
2023-08-17T08:49:12.673Z,5592
2023-08-17T08:50:28.821Z,5556
2023-08-17T08:51:44.950Z,5632
2023-08-17T08:53:01.074Z,5728
2023-08-17T08:54:16.232Z,5884
2023-08-17T08:55:32.357Z,5932
2023-08-17T08:56:48.494Z,5988
2023-08-17T08:58:04.627Z,6088
2023-08-17T08:59:20.757Z,6152
2023-08-17T09:00:36.890Z,6384
2023-08-17T09:01:53.024Z,6328
2023-08-17T09:03:09.157Z,6892
2023-08-17T09:04:25.280Z,6880
2023-08-17T09:05:41.421Z,6368
2023-08-17T09:06:57.550Z,6472
2023-08-17T09:08:13.679Z,6500
2023-08-17T09:09:29.815Z,6720
2023-08-17T09:10:45.947Z,7020
2023-08-17T09:12:01.093Z,7420
2023-08-17T09:13:17.223Z,7324
2023-08-17T09:14:33.360Z,6944
2023-08-17T09:15:49.492Z,7036
2023-08-17T09:17:05.623Z,7044
2023-08-17T09:18:21.735Z,7744
2023-08-17T09:19:37.889Z,7800
2023-08-17T09:20:54.020Z,8588
2023-08-17T09:22:10.153Z,9700
2023-08-17T09:23:26.289Z,8988
2023-08-17T09:24:42.415Z,9220
2023-08-17T09:25:58.548Z,9652
2023-08-17T09:27:14.669Z,10252
2023-08-17T09:28:30.815Z,8564
2023-08-17T09:29:45.967Z,8040
2023-08-17T09:31:02.097Z,7804
2023-08-17T09:32:18.229Z,7620
2023-08-17T09:33:34.366Z,7436
2023-08-17T09:34:50.488Z,7572
2023-08-17T09:36:06.622Z,7404
2023-08-17T09:37:22.755Z,7648
2023-08-17T09:38:38.882Z,8100
2023-08-17T09:39:55.022Z,9140
2023-08-17T09:41:11.155Z,8472
2023-08-17T09:42:27.277Z,10608
2023-08-17T09:43:43.410Z,9068
2023-08-17T09:44:59.552Z,10456
2023-08-17T09:46:14.697Z,26304
2023-08-17T09:47:29.855Z,30752
2023-08-17T09:48:45.986Z,19776
2023-08-17T09:50:02.103Z,19648
2023-08-17T09:51:18.249Z,11292
2023-08-17T09:52:34.381Z,10424
2023-08-17T09:53:50.515Z,14780
2023-08-17T09:55:06.654Z,24160
2023-08-17T09:56:22.782Z,18400
2023-08-17T09:57:38.909Z,16480
2023-08-17T09:58:55.048Z,28224
2023-08-17T10:00:11.180Z,15200
2023-08-17T10:01:27.314Z,27648
2023-08-17T10:02:43.446Z,22720
2023-08-17T10:03:59.578Z,29024
2023-08-17T10:05:14.721Z,31136
2023-08-17T10:06:30.858Z,33568
2023-08-17T10:07:46.986Z,36064
2023-08-17T10:09:03.121Z,35136
2023-08-17T10:10:19.258Z,34816
2023-08-17T10:11:35.387Z,34624
2023-08-17T10:12:51.520Z,31968
2023-08-17T10:14:07.646Z,36096
2023-08-17T10:15:23.786Z,35232
2023-08-17T10:16:39.916Z,28192
2023-08-17T10:17:56.042Z,34624
2023-08-17T10:19:12.181Z,30336
2023-08-17T10:20:28.313Z,30176
2023-08-17T10:21:44.451Z,30400
2023-08-17T10:22:59.594Z,21696
2023-08-17T10:24:15.718Z,8404
2023-08-17T10:25:31.870Z,7396
2023-08-17T10:26:47.991Z,6960
2023-08-17T10:28:04.116Z,7080
2023-08-17T10:29:20.249Z,7208
2023-08-17T10:30:36.390Z,8196
2023-08-17T10:31:52.524Z,8120
2023-08-17T10:33:08.653Z,8584
2023-08-17T10:34:24.791Z,8108
2023-08-17T10:35:40.907Z,7428
2023-08-17T10:36:57.050Z,6712
2023-08-17T10:38:13.181Z,6144
2023-08-17T10:39:29.317Z,5728
2023-08-17T10:40:44.470Z,5492
2023-08-17T10:42:00.604Z,5388
2023-08-17T10:43:16.736Z,5240
2023-08-17T10:44:32.871Z,5088
2023-08-17T10:45:48.998Z,4876
2023-08-17T10:47:05.125Z,4652
2023-08-17T10:48:21.256Z,4416
2023-08-17T10:49:37.393Z,4144
2023-08-17T10:50:53.530Z,3880
2023-08-17T10:52:09.658Z,3648
2023-08-17T10:53:25.790Z,3392
2023-08-17T10:54:41.926Z,3124
2023-08-17T10:55:58.053Z,2884
2023-08-17T10:57:14.190Z,2664
2023-08-17T10:58:29.341Z,2476
2023-08-17T10:59:45.462Z,2304
2023-08-17T11:01:01.605Z,2152
2023-08-17T11:02:17.731Z,1996
2023-08-17T11:03:33.863Z,1852
2023-08-17T11:04:49.999Z,1732
2023-08-17T11:06:06.127Z,1616
2023-08-17T11:07:22.253Z,1496
2023-08-17T11:08:38.407Z,1392
2023-08-17T11:09:54.530Z,1308
2023-08-17T11:11:10.647Z,1232
2023-08-17T11:12:26.796Z,1160
2023-08-17T11:13:42.926Z,1092
2023-08-17T11:14:58.069Z,1008
2023-08-17T11:16:14.200Z,924
2023-08-17T11:17:30.331Z,852
2023-08-17T11:18:46.467Z,788
2023-08-17T11:20:02.588Z,732
2023-08-17T11:21:18.733Z,688
2023-08-17T11:22:34.866Z,648
2023-08-17T11:23:50.994Z,612
2023-08-17T11:25:07.124Z,576
2023-08-17T11:26:23.264Z,544
2023-08-17T11:27:39.394Z,524
2023-08-17T11:28:55.519Z,508
2023-08-17T11:30:11.653Z,500
2023-08-17T11:31:26.808Z,496
2023-08-17T11:32:42.933Z,496
2023-08-17T11:33:59.072Z,496
2023-08-17T11:35:15.207Z,500
2023-08-17T11:36:31.336Z,504
2023-08-17T11:37:47.467Z,508
2023-08-17T11:39:03.603Z,504
2023-08-17T11:40:19.732Z,496
2023-08-17T11:41:35.860Z,484
2023-08-17T11:42:52.000Z,484
2023-08-17T11:44:08.121Z,484
2023-08-17T11:45:24.257Z,488
2023-08-17T11:46:40.392Z,488
2023-08-17T11:47:56.527Z,496
2023-08-17T11:49:11.670Z,492
2023-08-17T11:50:27.808Z,492
2023-08-17T11:51:43.936Z,500
2023-08-17T11:53:00.074Z,516
2023-08-17T11:54:16.196Z,524
2023-08-17T11:55:32.341Z,532
2023-08-17T11:56:48.472Z,540
2023-08-17T11:58:04.600Z,556
2023-08-17T11:59:20.722Z,576
2023-08-17T12:00:36.862Z,600
2023-08-17T12:01:52.989Z,628
2023-08-17T12:03:09.119Z,656
2023-08-17T12:04:25.250Z,672
2023-08-17T12:05:40.402Z,692
2023-08-17T12:06:56.530Z,708
2023-08-17T12:08:12.670Z,732
2023-08-17T12:09:28.798Z,756
2023-08-17T12:10:44.941Z,788
2023-08-17T12:12:01.063Z,832
2023-08-17T12:13:17.201Z,888
2023-08-17T12:14:33.340Z,960
2023-08-17T12:15:49.464Z,1040
2023-08-17T12:17:05.589Z,1124
2023-08-17T12:18:21.736Z,1212
2023-08-17T12:19:37.861Z,1304
2023-08-17T12:20:53.993Z,1416
2023-08-17T12:22:09.137Z,1572
2023-08-17T12:23:25.277Z,1776
2023-08-17T12:24:41.401Z,2032
2023-08-17T12:25:57.541Z,2352
2023-08-17T12:27:13.665Z,2744
2023-08-17T12:28:29.806Z,3164
2023-08-17T12:29:45.933Z,3720
2023-08-17T12:31:02.067Z,4384
2023-08-17T12:32:18.192Z,5152
2023-08-17T12:33:34.338Z,5976
2023-08-17T12:34:50.456Z,6760
2023-08-17T12:36:06.592Z,7476
2023-08-17T12:37:22.733Z,7988
2023-08-17T12:38:38.848Z,8276
2023-08-17T12:39:54.001Z,8428
2023-08-17T12:41:10.138Z,8468
2023-08-17T12:42:26.275Z,8368
2023-08-17T12:43:42.000Z,8236
2023-08-17T12:44:58.538Z,8024
2023-08-17T12:46:14.686Z,7848
2023-08-17T12:47:30.795Z,7556
2023-08-17T12:48:46.936Z,7392
2023-08-17T12:50:03.043Z,7344
2023-08-17T12:51:19.195Z,7368
2023-08-17T12:52:35.328Z,7172
2023-08-17T12:53:51.465Z,7068
2023-08-17T12:55:07.598Z,7312
2023-08-17T12:56:22.741Z,7328
2023-08-17T12:57:38.860Z,6968
2023-08-17T12:58:54.997Z,6408
2023-08-17T13:00:11.128Z,5960
2023-08-17T13:01:27.268Z,5548
2023-08-17T13:02:43.397Z,5100
2023-08-17T13:03:59.531Z,4680
2023-08-17T13:05:15.667Z,4456
2023-08-17T13:06:31.792Z,4344
2023-08-17T13:07:47.935Z,4180
2023-08-17T13:09:04.052Z,3996
2023-08-17T13:10:20.203Z,3860
2023-08-17T13:11:36.326Z,3728
2023-08-17T13:12:51.470Z,3648
2023-08-17T13:14:07.611Z,3664
2023-08-17T13:15:23.733Z,3628
2023-08-17T13:16:39.869Z,3572
2023-08-17T13:17:56.007Z,3604
2023-08-17T13:19:12.134Z,3716
2023-08-17T13:20:28.269Z,3852
2023-08-17T13:21:44.403Z,3788
2023-08-17T13:23:00.532Z,3588
2023-08-17T13:24:16.657Z,3536
2023-08-17T13:25:32.800Z,3488
2023-08-17T13:26:48.925Z,3424
2023-08-17T13:28:05.063Z,3360
2023-08-17T13:29:21.197Z,3460
2023-08-17T13:30:36.343Z,3516
2023-08-17T13:31:52.473Z,3548
2023-08-17T13:33:08.600Z,3564
2023-08-17T13:34:24.737Z,3576
2023-08-17T13:35:40.873Z,3584
2023-08-17T13:36:57.007Z,3600
2023-08-17T13:38:13.128Z,3676
2023-08-17T13:39:29.258Z,3752
2023-08-17T13:40:45.403Z,3824
2023-08-17T13:42:01.533Z,3964
2023-08-17T13:43:17.657Z,4176
2023-08-17T13:44:33.793Z,4476
2023-08-17T13:45:49.922Z,4512
2023-08-17T13:47:05.071Z,4320
2023-08-17T13:48:21.202Z,4160
2023-08-17T13:49:37.342Z,4136
2023-08-17T13:50:53.474Z,4148
2023-08-17T13:52:09.603Z,4148
2023-08-17T13:53:25.730Z,4140
2023-08-17T13:54:41.868Z,4192
2023-08-17T13:55:58.000Z,4292
2023-08-17T13:57:14.130Z,4348
2023-08-17T13:58:30.267Z,4404
2023-08-17T13:59:46.401Z,4544
2023-08-17T14:01:02.525Z,4768
2023-08-17T14:02:18.665Z,5072
2023-08-17T14:03:33.819Z,5368
2023-08-17T14:04:49.941Z,5752
2023-08-17T14:06:06.082Z,6260
2023-08-17T14:07:22.221Z,6616
2023-08-17T14:08:38.350Z,6728
2023-08-17T14:09:54.481Z,6632
2023-08-17T14:11:10.609Z,6512
2023-08-17T14:12:26.742Z,6192
2023-08-17T14:13:42.878Z,6048
2023-08-17T14:14:59.009Z,5784
2023-08-17T14:16:15.147Z,5388
2023-08-17T14:17:31.277Z,5296
2023-08-17T14:18:47.399Z,5140
2023-08-17T14:20:02.538Z,4960
2023-08-17T14:21:18.693Z,4824
2023-08-17T14:22:34.000Z,4880
2023-08-17T14:23:50.951Z,4928
2023-08-17T14:25:07.080Z,5036
2023-08-17T14:26:23.214Z,5260
2023-08-17T14:27:39.357Z,5388
2023-08-17T14:28:55.480Z,5340
2023-08-17T14:30:11.607Z,5276
2023-08-17T14:31:27.740Z,5272
2023-08-17T14:32:43.882Z,5500
2023-08-17T14:34:00.003Z,5860
2023-08-17T14:35:16.142Z,5740
2023-08-17T14:36:31.285Z,5140
2023-08-17T14:37:47.412Z,4408
2023-08-17T14:39:03.550Z,3912
2023-08-17T14:40:19.686Z,3652
2023-08-17T14:41:35.814Z,3604
2023-08-17T14:42:51.957Z,3748
2023-08-17T14:44:08.072Z,3844
2023-08-17T14:45:24.211Z,3464
2023-08-17T14:46:40.344Z,3084
2023-08-17T14:47:56.468Z,2992
2023-08-17T14:49:12.616Z,3036
2023-08-17T14:50:28.744Z,3096
2023-08-17T14:51:44.876Z,3172
2023-08-17T14:53:01.005Z,3224
2023-08-17T14:54:16.154Z,3268
2023-08-17T14:55:32.290Z,3352
2023-08-17T14:56:48.426Z,3448
2023-08-17T14:58:04.546Z,3516
2023-08-17T14:59:20.682Z,3576
2023-08-17T15:00:36.817Z,3556
2023-08-17T15:01:52.949Z,3520
2023-08-17T15:03:09.082Z,3480
2023-08-17T15:04:25.214Z,3448
2023-08-17T15:05:41.347Z,3384
2023-08-17T15:06:57.478Z,3340
2023-08-17T15:08:13.604Z,3288
2023-08-17T15:09:29.745Z,3220
2023-08-17T15:10:45.877Z,3152
2023-08-17T15:12:01.017Z,3124
2023-08-17T15:13:17.156Z,3024
2023-08-17T15:14:33.283Z,3004
2023-08-17T15:15:49.418Z,3044
2023-08-17T15:17:05.550Z,3224
2023-08-17T15:18:21.682Z,3448
2023-08-17T15:19:37.814Z,3640
2023-08-17T15:20:53.946Z,3708
2023-08-17T15:22:10.072Z,3728
2023-08-17T15:23:26.208Z,3816
2023-08-17T15:24:42.340Z,4016
2023-08-17T15:25:58.472Z,4280
2023-08-17T15:27:14.604Z,4552
2023-08-17T15:28:29.752Z,4872
2023-08-17T15:29:45.885Z,5316
2023-08-17T15:31:02.019Z,5828
2023-08-17T15:32:18.149Z,6108
2023-08-17T15:33:34.290Z,6044
2023-08-17T15:34:50.410Z,6120
2023-08-17T15:36:06.548Z,6292
2023-08-17T15:37:22.683Z,6380
2023-08-17T15:38:38.818Z,6440
2023-08-17T15:39:54.940Z,6392
2023-08-17T15:41:11.065Z,6188
2023-08-17T15:42:27.205Z,5868
2023-08-17T15:43:43.351Z,5632
2023-08-17T15:44:58.490Z,5468
2023-08-17T15:46:14.619Z,5284
2023-08-17T15:47:30.756Z,4536
2023-08-17T15:48:46.881Z,3824
2023-08-17T15:50:03.020Z,3304
2023-08-17T15:51:19.152Z,2984
2023-08-17T15:52:35.290Z,2764
2023-08-17T15:53:51.415Z,2632
2023-08-17T15:55:07.552Z,2512
2023-08-17T15:56:23.678Z,2320
2023-08-17T15:57:39.811Z,2120
2023-08-17T15:58:55.945Z,2068
2023-08-17T16:00:12.075Z,2164
2023-08-17T16:01:28.210Z,2236
2023-08-17T16:02:43.361Z,2384
2023-08-17T16:03:59.489Z,2512
2023-08-17T16:05:15.616Z,2604
2023-08-17T16:06:31.756Z,2712
2023-08-17T16:07:47.889Z,2808
2023-08-17T16:09:04.019Z,2880
2023-08-17T16:10:20.150Z,2900
2023-08-17T16:11:36.288Z,2852
2023-08-17T16:12:52.426Z,2776
2023-08-17T16:14:08.553Z,2684
2023-08-17T16:15:24.674Z,2564
2023-08-17T16:16:40.813Z,2464
2023-08-17T16:17:56.945Z,2344
2023-08-17T16:19:12.093Z,2232
2023-08-17T16:20:28.230Z,2148
2023-08-17T16:21:44.360Z,2100
2023-08-17T16:23:00.499Z,2112
2023-08-17T16:24:16.622Z,2076
2023-08-17T16:25:32.753Z,2136
2023-08-17T16:26:48.886Z,2144
2023-08-17T16:28:05.020Z,2032
2023-08-17T16:29:21.149Z,1868
2023-08-17T16:30:37.275Z,1676
2023-08-17T16:31:53.414Z,1536
2023-08-17T16:33:09.545Z,1504
2023-08-17T16:34:25.681Z,1512
2023-08-17T16:35:40.832Z,1480
2023-08-17T16:36:56.969Z,1408
2023-08-17T16:38:13.095Z,1272
2023-08-17T16:39:29.223Z,1104
2023-08-17T16:40:45.364Z,940
2023-08-17T16:42:01.488Z,868
2023-08-17T16:43:17.624Z,868
2023-08-17T16:44:33.751Z,964
2023-08-17T16:45:49.876Z,1052
2023-08-17T16:47:06.020Z,1116
2023-08-17T16:48:22.157Z,1116
2023-08-17T16:49:38.286Z,1060
2023-08-17T16:50:54.411Z,1000
2023-08-17T16:52:10.545Z,928
2023-08-17T16:53:25.701Z,924
2023-08-17T16:54:41.833Z,948
2023-08-17T16:55:57.954Z,980
2023-08-17T16:57:14.092Z,1024
2023-08-17T16:58:30.226Z,1020
2023-08-17T16:59:46.358Z,980
2023-08-17T17:01:02.492Z,988
2023-08-17T17:02:18.610Z,992
2023-08-17T17:03:34.756Z,972
2023-08-17T17:04:50.884Z,976
2023-08-17T17:06:07.013Z,1016
2023-08-17T17:07:23.146Z,1092
2023-08-17T17:08:39.283Z,1224
2023-08-17T17:09:54.431Z,1332
2023-08-17T17:11:10.566Z,1348
2023-08-17T17:12:26.692Z,1304
2023-08-17T17:13:42.822Z,1272
2023-08-17T17:14:58.967Z,1300
2023-08-17T17:16:15.081Z,1392
2023-08-17T17:17:31.213Z,1412
2023-08-17T17:18:47.356Z,1356
2023-08-17T17:20:03.490Z,1192
2023-08-17T17:21:19.608Z,1060